Aberdeen, North Carolina
Current Conditions -  °F | °C
As of 1:35 PM on Thursday 23 Oct 2014 (Local Time) from KSOP Reporting Station
Clear Clear  
Wind Chill: 64°   Ceiling: Unl
Heat Index: 64°   Visibility: 10mi
Dew Point: 41°   Wind: 5mph
Humidity: 42%   Direction: 340°NNW
Pressure: 30"   Gusts: NA
Location:  35.13°N, 79.43°W
Report Text: KSOP 231735Z AUTO 34004KT 10SM CLR 18/05 A3000 RMK AO1
Loading
Personal Weather Stations






























Interactive Weather Map New forecast layout! Learn more

10-Day Weather Forecast

Advertisements
Track Severe Weather on mobile